Time;durP1;ratioP1;P1;durP2;ratioP2;P2;SDS_P1;SDS_P2;PMS_P1;PMS_P2;Temp;Humidity;BMP_temperature;BMP_pressure;BME280_temperature;BME280_humidity;BME280_pressure;Samples;Min_cycle;Max_cycle;Signal;HPM_P1;HPM_P2
2021/01/19 00:05:34;;;;;;;;;;;4.60;99.90;;;;;;12385663;28;19926;-91
2021/01/19 00:11:36;;;;;;;;;;;4.50;99.90;;;;;;12385703;28;20954;-91
2021/01/19 00:17:37;;;;;;;;;;;4.50;99.90;;;;;;12390010;28;19929;-91
2021/01/19 00:23:38;;;;;;;;;;;4.50;99.90;;;;;;12403724;28;19929;-92
2021/01/19 00:29:40;;;;;;;;;;;4.60;99.90;;;;;;12390752;28;19960;-91
2021/01/19 00:35:41;;;;;;;;;;;4.70;99.90;;;;;;12397153;28;19933;-91
2021/01/19 00:41:42;;;;;;;;;;;4.60;99.90;;;;;;12387639;28;19973;-92
2021/01/19 00:47:44;;;;;;;;;;;4.60;99.90;;;;;;12396211;28;19933;-91
2021/01/19 00:53:45;;;;;;;;;;;4.50;99.90;;;;;;12426895;28;19933;-91
2021/01/19 00:59:47;;;;;;;;;;;4.50;99.90;;;;;;12395727;28;19929;-92
2021/01/19 01:05:48;;;;;;;;;;;4.50;99.90;;;;;;12395118;28;19973;-91
2021/01/19 01:11:50;;;;;;;;;;;4.50;99.90;;;;;;12398138;28;19930;-92
2021/01/19 01:17:51;;;;;;;;;;;4.50;99.90;;;;;;12414153;28;19925;-91
2021/01/19 01:23:52;;;;;;;;;;;4.50;99.90;;;;;;12423800;28;19933;-92
2021/01/19 01:29:53;;;;;;;;;;;4.50;99.90;;;;;;12400734;28;20320;-92
2021/01/19 01:35:55;;;;;;;;;;;4.60;99.90;;;;;;12396457;28;19933;-92
2021/01/19 01:41:56;;;;;;;;;;;4.50;99.90;;;;;;12418772;28;20380;-92
2021/01/19 01:47:58;;;;;;;;;;;4.50;99.90;;;;;;12399704;28;19953;-91
2021/01/19 01:54:00;;;;;;;;;;;4.40;99.90;;;;;;12399751;28;20383;-92
2021/01/19 02:00:03;;;;;;;;;;;4.50;99.90;;;;;;12398402;28;19976;-91
2021/01/19 02:06:04;;;;;;;;;;;4.50;99.90;;;;;;12401312;28;20317;-92
2021/01/19 02:12:09;;;;;;;;;;;4.50;99.90;;;;;;12398347;28;19994;-91
2021/01/19 02:18:15;;;;;;;;;;;4.50;99.90;;;;;;12403983;28;19929;-92
2021/01/19 02:24:26;;;;;;;;;;;4.60;99.90;;;;;;12404822;28;19933;-92
2021/01/19 02:30:46;;;;;;;;;;;4.60;99.90;;;;;;12386023;28;19965;-91
2021/01/19 02:37:00;;;;;;;;;;;4.60;99.90;;;;;;12398546;28;19929;-92
2021/01/19 02:43:09;;;;;;;;;;;4.60;99.90;;;;;;12385385;28;19933;-92
2021/01/19 02:49:12;;;;;;;;;;;4.60;99.90;;;;;;12380169;28;19925;-92
2021/01/19 02:55:13;;;;;;;;;;;4.60;99.90;;;;;;12376376;28;19976;-92
2021/01/19 03:01:19;;;;;;;;;;;4.50;99.90;;;;;;12377260;28;19926;-91
2021/01/19 03:07:21;;;;;;;;;;;4.60;99.90;;;;;;12377191;28;19983;-92
2021/01/19 03:13:23;;;;;;;;;;;4.60;99.90;;;;;;12384183;28;19929;-92
2021/01/19 03:19:25;;;;;;;;;;;4.70;99.90;;;;;;12410868;28;20071;-92
2021/01/19 03:25:27;;;;;;;;;;;4.70;99.90;;;;;;12422361;28;20027;-91
2021/01/19 03:31:28;;;;;;;;;;;4.60;99.90;;;;;;12396140;28;20316;-91
2021/01/19 03:37:29;;;;;;;;;;;4.60;99.90;;;;;;12396154;28;19930;-91
2021/01/19 03:43:32;;;;;;;;;;;4.60;99.90;;;;;;12393727;28;19925;-91
2021/01/19 03:49:33;;;;;;;;;;;4.50;99.90;;;;;;12408156;28;20054;-92
2021/01/19 03:55:35;;;;;;;;;;;4.50;99.90;;;;;;12388440;28;19976;-91
2021/01/19 04:01:40;;;;;;;;;;;4.50;99.90;;;;;;12394142;28;19957;-92
2021/01/19 04:07:42;;;;;;;;;;;4.40;99.90;;;;;;12389724;28;19929;-91
2021/01/19 04:13:44;;;;;;;;;;;4.40;99.90;;;;;;12391911;28;20032;-92
2021/01/19 04:19:45;;;;;;;;;;;4.30;99.90;;;;;;12396637;28;20378;-91
2021/01/19 04:25:47;;;;;;;;;;;4.40;99.90;;;;;;12417247;28;19937;-91
2021/01/19 04:31:48;;;;;;;;;;;4.40;99.90;;;;;;12405160;28;20297;-92
2021/01/19 04:37:50;;;;;;;;;;;4.40;99.90;;;;;;12403505;28;20377;-91
2021/01/19 04:43:51;;;;;;;;;;;4.40;99.90;;;;;;12400316;28;19930;-92
2021/01/19 04:49:53;;;;;;;;;;;4.30;99.90;;;;;;12398132;28;19926;-92
2021/01/19 04:55:58;;;;;;;;;;;4.30;99.90;;;;;;12415619;28;19929;-92
2021/01/19 05:02:14;;;;;;;;;;;4.20;99.90;;;;;;12406095;28;20043;-92
2021/01/19 05:08:18;;;;;;;;;;;4.40;99.90;;;;;;12400113;28;20551;-91
2021/01/19 05:14:20;;;;;;;;;;;4.30;99.90;;;;;;12406685;28;19929;-92
2021/01/19 05:20:22;;;;;;;;;;;4.40;99.90;;;;;;12398190;28;19937;-93
2021/01/19 05:26:24;;;;;;;;;;;4.30;99.90;;;;;;12427326;28;19933;-91
2021/01/19 05:32:41;;;;;;;;;;;4.30;99.90;;;;;;12397579;28;19937;-91
2021/01/19 05:38:45;;;;;;;;;;;4.30;99.90;;;;;;12399573;28;19929;-90
2021/01/19 05:44:47;;;;;;;;;;;4.30;99.90;;;;;;12406246;28;20297;-89
2021/01/19 05:50:48;;;;;;;;;;;4.20;99.90;;;;;;12401166;28;19930;-90
2021/01/19 05:56:50;;;;;;;;;;;4.20;99.90;;;;;;12404297;28;19999;-90
2021/01/19 06:02:51;;;;;;;;;;;4.10;99.90;;;;;;12396876;28;19929;-89
2021/01/19 06:09:00;;;;;;;;;;;4.00;99.90;;;;;;12389674;28;19932;-89
2021/01/19 06:15:02;;;;;;;;;;;4.00;99.90;;;;;;12391521;28;19976;-90
2021/01/19 06:21:06;;;;;;;;;;;4.00;99.90;;;;;;12395789;28;19934;-92
2021/01/19 06:27:08;;;;;;;;;;;3.90;99.90;;;;;;12411443;28;19933;-91
2021/01/19 06:33:09;;;;;;;;;;;3.90;99.90;;;;;;12392946;28;19925;-91
2021/01/19 06:39:22;;;;;;;;;;;3.80;99.90;;;;;;12406840;28;19929;-92
2021/01/19 06:45:24;;;;;;;;;;;3.70;99.90;;;;;;12418989;28;20635;-93
2021/01/19 06:51:26;;;;;;;;;;;3.70;99.90;;;;;;12411992;28;19930;-91
2021/01/19 06:57:30;;;;;;;;;;;3.60;99.90;;;;;;12399589;28;19937;-92
2021/01/19 07:03:36;;;;;;;;;;;3.70;99.90;;;;;;12402571;28;19930;-91
2021/01/19 07:09:57;;;;;;;;;;;3.70;99.90;;;;;;12394530;28;19933;-91
2021/01/19 07:16:05;;;;;;;;;;;3.60;99.90;;;;;;12387132;28;19937;-91
2021/01/19 07:22:09;;;;;;;;;;;3.70;99.90;;;;;;12392434;28;21334;-91
2021/01/19 07:28:11;;;;;;;;;;;3.70;99.90;;;;;;12405510;28;19929;-92
2021/01/19 07:34:12;;;;;;;;;;;3.80;99.90;;;;;;12420988;28;19936;-91
2021/01/19 07:40:20;;;;;;;;;;;3.70;99.90;;;;;;12374099;28;19981;-93
2021/01/19 07:46:24;;;;;;;;;;;3.60;99.90;;;;;;12424246;28;19929;-92
2021/01/19 07:52:43;;;;;;;;;;;3.70;99.90;;;;;;12405627;28;19984;-92
2021/01/19 07:58:45;;;;;;;;;;;3.70;99.90;;;;;;12408170;28;19930;-91
2021/01/19 08:04:46;;;;;;;;;;;3.70;99.90;;;;;;12407460;28;19957;-91
2021/01/19 08:10:54;;;;;;;;;;;3.60;99.90;;;;;;12400750;28;19929;-91
2021/01/19 08:16:55;;;;;;;;;;;3.70;99.90;;;;;;12385747;28;20041;-92
2021/01/19 08:23:24;;;;;;;;;;;3.70;99.90;;;;;;12398063;28;19925;-91
2021/01/19 08:29:25;;;;;;;;;;;3.70;99.90;;;;;;12414585;28;19929;-92
2021/01/19 08:35:28;;;;;;;;;;;3.70;99.90;;;;;;12417520;28;19934;-92
2021/01/19 08:41:31;;;;;;;;;;;3.70;99.90;;;;;;12404390;28;19936;-93
2021/01/19 08:47:36;;;;;;;;;;;3.70;99.90;;;;;;12404528;28;19960;-92
2021/01/19 08:53:47;;;;;;;;;;;3.80;99.90;;;;;;12416514;28;19929;-91
2021/01/19 08:59:49;;;;;;;;;;;3.80;99.90;;;;;;12409853;28;20429;-93
2021/01/19 09:05:51;;;;;;;;;;;3.80;99.90;;;;;;12410915;28;19926;-91
2021/01/19 09:11:57;;;;;;;;;;;3.80;99.90;;;;;;12413000;28;19932;-91
2021/01/19 09:17:59;;;;;;;;;;;3.90;99.90;;;;;;12415215;28;19926;-91
2021/01/19 09:24:01;;;;;;;;;;;3.90;99.90;;;;;;12411015;28;19930;-90
2021/01/19 09:30:06;;;;;;;;;;;3.90;99.90;;;;;;12410688;28;19941;-91
2021/01/19 09:36:10;;;;;;;;;;;4.00;99.90;;;;;;12407600;28;19948;-92
2021/01/19 09:42:12;;;;;;;;;;;4.10;99.90;;;;;;12411531;28;20759;-94
2021/01/19 09:48:22;;;;;;;;;;;4.20;99.90;;;;;;12400746;28;19925;-93
2021/01/19 09:54:24;;;;;;;;;;;4.20;99.90;;;;;;12410143;28;20590;-92
2021/01/19 10:00:33;;;;;;;;;;;4.20;99.90;;;;;;12416370;28;19944;-91
2021/01/19 10:06:36;;;;;;;;;;;4.30;99.90;;;;;;12397517;28;19926;-91
2021/01/19 10:12:38;;;;;;;;;;;4.40;99.90;;;;;;12418948;28;19930;-93
2021/01/19 10:18:41;;;;;;;;;;;4.40;99.90;;;;;;12398223;28;20054;-93
2021/01/19 10:24:49;;;;;;;;;;;4.40;99.90;;;;;;12421322;28;19940;-93
2021/01/19 10:30:50;;;;;;;;;;;4.40;99.90;;;;;;12426653;28;20359;-93
2021/01/19 10:36:53;;;;;;;;;;;4.50;99.90;;;;;;12413712;23;19929;-43
2021/01/19 10:42:55;;;;;;;;;;;4.50;99.90;;;;;;12391512;28;19925;-43
2021/01/19 10:49:10;;;;;;;;;;;4.60;99.90;;;;;;12404803;28;19929;-42
2021/01/19 10:55:12;;;;;;;;;;;4.60;99.90;;;;;;12432778;28;19928;-42
2021/01/19 11:01:14;;;;;;;;;;;4.50;99.90;;;;;;12447172;28;19929;-42
2021/01/19 11:07:16;;;;;;;;;;;4.50;99.90;;;;;;12387220;28;20379;-43
2021/01/19 11:13:17;;;;;;;;;;;4.50;99.90;;;;;;12417960;28;19934;-44
2021/01/19 11:19:20;;;;;;;;;;;4.50;99.90;;;;;;12426672;28;20087;-43
2021/01/19 11:25:22;;;;;;;;;;;4.60;99.90;;;;;;12374929;28;20959;-43
2021/01/19 11:31:25;;;;;;;;;;;4.60;99.90;;;;;;12444485;28;19925;-43
2021/01/19 11:37:28;;;;;;;;;;;4.60;99.90;;;;;;12399933;28;19937;-43
2021/01/19 11:43:30;;;;;;;;;;;4.60;99.90;;;;;;12395230;28;19977;-43
2021/01/19 11:49:32;;;;;;;;;;;4.70;99.90;;;;;;12411868;28;19929;-45
2021/01/19 11:55:34;;;;;;;;;;;4.80;99.90;;;;;;12440339;28;20055;-43
2021/01/19 12:01:37;;;;;;;;;;;4.80;99.90;;;;;;12424634;28;19975;-43
2021/01/19 12:07:40;;;;;;;;;;;4.80;99.90;;;;;;12379424;28;20364;-42
2021/01/19 12:13:42;;;;;;;;;;;4.90;99.90;;;;;;12445350;28;20069;-43
2021/01/19 12:19:44;;;;;;;;;;;4.90;99.90;;;;;;12389685;28;19933;-44
2021/01/19 12:25:46;;;;;;;;;;;4.90;99.90;;;;;;12419115;28;19929;-43
2021/01/19 12:31:49;;;;;;;;;;;5.00;99.90;;;;;;12402119;28;19977;-43
2021/01/19 12:37:54;;;;;;;;;;;5.00;99.90;;;;;;12423397;28;20040;-43
2021/01/19 12:43:57;;;;;;;;;;;5.10;99.90;;;;;;12407092;28;19936;-43
2021/01/19 12:49:59;;;;;;;;;;;5.10;99.90;;;;;;12454489;28;20289;-44
2021/01/19 12:56:01;;;;;;;;;;;5.20;99.90;;;;;;12414395;28;19929;-45
2021/01/19 13:02:04;;;;;;;;;;;5.30;99.90;;;;;;12419945;28;20368;-43
2021/01/19 13:08:07;;;;;;;;;;;5.30;99.90;;;;;;12403026;28;19925;-44
2021/01/19 13:14:08;;;;;;;;;;;5.40;99.90;;;;;;12425005;28;19944;-44
2021/01/19 13:20:11;;;;;;;;;;;5.50;99.90;;;;;;12426951;28;20020;-43
2021/01/19 13:26:19;;;;;;;;;;;5.50;99.90;;;;;;12368790;28;20432;-43
2021/01/19 13:32:21;;;;;;;;;;;5.60;99.90;;;;;;12418606;28;19982;-43
2021/01/19 13:38:22;;;;;;;;;;;5.70;99.90;;;;;;12411915;28;20984;-43
2021/01/19 13:44:25;;;;;;;;;;;5.70;99.90;;;;;;12384173;28;19926;-43
2021/01/19 13:50:28;;;;;;;;;;;5.90;99.90;;;;;;12402945;28;20065;-45
2021/01/19 13:56:30;;;;;;;;;;;6.00;99.90;;;;;;12409986;28;20315;-43
2021/01/19 14:02:31;;;;;;;;;;;6.10;99.90;;;;;;12428208;28;19929;-43
2021/01/19 14:08:34;;;;;;;;;;;6.20;99.90;;;;;;12402686;28;20582;-44
2021/01/19 14:14:36;;;;;;;;;;;6.30;99.90;;;;;;12386728;28;19933;-44
2021/01/19 14:20:39;;;;;;;;;;;6.50;99.90;;;;;;12422330;28;19941;-44
2021/01/19 14:26:40;;;;;;;;;;;6.70;99.90;;;;;;12402992;28;20066;-43
2021/01/19 14:32:50;;;;;;;;;;;6.90;99.90;;;;;;12426048;28;19956;-44
2021/01/19 14:38:52;;;;;;;;;;;6.90;99.90;;;;;;12423360;28;19929;-44
2021/01/19 14:44:57;;;;;;;;;;;7.00;99.90;;;;;;12388877;28;19975;-44
2021/01/19 14:50:59;;;;;;;;;;;7.10;99.90;;;;;;12393059;28;19933;-44
2021/01/19 14:57:01;;;;;;;;;;;7.10;99.90;;;;;;12389399;28;19929;-44
2021/01/19 15:03:05;;;;;;;;;;;7.20;99.90;;;;;;12421047;28;19933;-43
2021/01/19 15:09:07;;;;;;;;;;;7.20;99.90;;;;;;12412550;28;19942;-44
2021/01/19 15:15:11;;;;;;;;;;;7.30;99.90;;;;;;12418144;28;19998;-44
2021/01/19 15:21:13;;;;;;;;;;;7.30;99.90;;;;;;12394940;28;20487;-44
2021/01/19 15:27:15;;;;;;;;;;;7.40;99.90;;;;;;12414821;28;19933;-43
2021/01/19 15:33:17;;;;;;;;;;;7.50;99.90;;;;;;12432101;28;20306;-44
2021/01/19 15:39:19;;;;;;;;;;;7.50;99.90;;;;;;12417506;28;19996;-44
2021/01/19 15:45:21;;;;;;;;;;;7.50;99.90;;;;;;12402305;28;20381;-45
2021/01/19 15:51:24;;;;;;;;;;;7.60;99.90;;;;;;12403351;28;19999;-43
2021/01/19 15:57:26;;;;;;;;;;;7.50;99.90;;;;;;12423353;28;19956;-43
2021/01/19 16:03:28;;;;;;;;;;;7.60;99.90;;;;;;12387536;28;20028;-43
2021/01/19 16:09:31;;;;;;;;;;;7.70;99.90;;;;;;12334980;28;20352;-44
2021/01/19 16:15:33;;;;;;;;;;;7.60;99.90;;;;;;12352050;28;19939;-43
2021/01/19 16:21:35;;;;;;;;;;;7.70;99.90;;;;;;12344530;28;19976;-43
2021/01/19 16:27:37;;;;;;;;;;;7.70;99.90;;;;;;12377576;28;20339;-43
2021/01/19 16:33:39;;;;;;;;;;;7.80;99.90;;;;;;12422862;28;19934;-43
2021/01/19 16:39:44;;;;;;;;;;;7.90;99.90;;;;;;12384462;28;19929;-44
2021/01/19 16:45:46;;;;;;;;;;;7.90;99.90;;;;;;12414676;28;20065;-45
2021/01/19 16:51:48;;;;;;;;;;;7.90;99.90;;;;;;12409390;28;21007;-44
2021/01/19 16:57:50;;;;;;;;;;;8.10;99.90;;;;;;12465273;28;19925;-46
2021/01/19 17:03:52;;;;;;;;;;;8.20;99.90;;;;;;12440298;28;19983;-45
2021/01/19 17:09:57;;;;;;;;;;;8.20;99.90;;;;;;12397847;28;19925;-43
2021/01/19 17:15:59;;;;;;;;;;;8.30;99.90;;;;;;12392887;28;19933;-44
2021/01/19 17:22:00;;;;;;;;;;;8.30;99.90;;;;;;12406379;28;19994;-43
2021/01/19 17:28:02;;;;;;;;;;;8.30;99.90;;;;;;12395910;28;19933;-43
2021/01/19 17:34:04;;;;;;;;;;;8.30;99.90;;;;;;12397176;28;19933;-43
2021/01/19 17:40:06;;;;;;;;;;;8.30;99.90;;;;;;12430719;28;20037;-45
2021/01/19 17:46:11;;;;;;;;;;;8.30;99.90;;;;;;12369215;28;19929;-43
2021/01/19 17:52:13;;;;;;;;;;;8.30;99.90;;;;;;12400675;28;19926;-44
2021/01/19 17:58:15;;;;;;;;;;;8.30;99.90;;;;;;12431483;28;20195;-44
2021/01/19 18:04:16;;;;;;;;;;;8.30;99.90;;;;;;12409069;28;19969;-43
2021/01/19 18:10:18;;;;;;;;;;;8.30;99.90;;;;;;12419719;28;20017;-45
2021/01/19 18:16:22;;;;;;;;;;;8.30;99.90;;;;;;12411545;28;20305;-43
2021/01/19 18:22:23;;;;;;;;;;;8.20;99.90;;;;;;12414531;28;19952;-44
2021/01/19 18:28:25;;;;;;;;;;;8.10;99.90;;;;;;12408189;28;19929;-43
2021/01/19 18:34:27;;;;;;;;;;;8.00;99.90;;;;;;12411652;28;20027;-43
2021/01/19 18:40:28;;;;;;;;;;;8.00;99.90;;;;;;12385015;28;19947;-44
2021/01/19 18:46:29;;;;;;;;;;;7.90;99.90;;;;;;12399814;28;19929;-46
2021/01/19 18:52:30;;;;;;;;;;;7.80;99.90;;;;;;12398245;28;19963;-46
2021/01/19 18:58:32;;;;;;;;;;;7.80;99.90;;;;;;12395420;28;19929;-45
2021/01/19 19:04:33;;;;;;;;;;;7.80;99.90;;;;;;12409139;28;19983;-43
2021/01/19 19:10:34;;;;;;;;;;;7.70;99.90;;;;;;12406503;28;20343;-43
2021/01/19 19:16:38;;;;;;;;;;;7.70;99.90;;;;;;12415350;28;19983;-44
2021/01/19 19:22:41;;;;;;;;;;;7.70;99.90;;;;;;12415107;28;19925;-43
2021/01/19 19:28:43;;;;;;;;;;;7.60;99.90;;;;;;12417475;28;19930;-43
2021/01/19 19:34:44;;;;;;;;;;;7.60;99.90;;;;;;12399766;28;20458;-43
2021/01/19 19:40:45;;;;;;;;;;;7.50;99.90;;;;;;12413289;28;19972;-43
2021/01/19 19:46:46;;;;;;;;;;;7.50;99.90;;;;;;12399136;28;20033;-44
2021/01/19 19:52:55;;;;;;;;;;;7.60;99.90;;;;;;12408944;28;20040;-43
2021/01/19 19:58:56;;;;;;;;;;;7.50;99.90;;;;;;12414813;28;19925;-43
2021/01/19 20:04:58;;;;;;;;;;;7.60;99.90;;;;;;12436013;28;19929;-43
2021/01/19 20:11:00;;;;;;;;;;;7.50;99.90;;;;;;12406061;28;20205;-45
2021/01/19 20:17:01;;;;;;;;;;;7.50;99.90;;;;;;12412175;28;19933;-43
2021/01/19 20:23:02;;;;;;;;;;;7.40;99.90;;;;;;12390366;28;19933;-43
2021/01/19 20:29:04;;;;;;;;;;;7.30;99.90;;;;;;12420033;28;20004;-46
2021/01/19 20:35:06;;;;;;;;;;;7.40;99.90;;;;;;12406956;28;20355;-46
2021/01/19 20:41:08;;;;;;;;;;;7.40;99.90;;;;;;12405539;28;19925;-44
2021/01/19 20:47:11;;;;;;;;;;;7.40;99.90;;;;;;12375117;28;19961;-43
2021/01/19 20:53:12;;;;;;;;;;;7.30;99.90;;;;;;12408493;28;20350;-44
2021/01/19 20:59:16;;;;;;;;;;;7.30;99.90;;;;;;12406477;28;19925;-44
2021/01/19 21:05:17;;;;;;;;;;;7.20;99.90;;;;;;12416721;28;20334;-44
2021/01/19 21:11:19;;;;;;;;;;;7.10;99.90;;;;;;12405183;28;20349;-45
2021/01/19 21:17:20;;;;;;;;;;;7.00;99.90;;;;;;12411140;28;19961;-44
2021/01/19 21:23:22;;;;;;;;;;;7.00;99.90;;;;;;12410626;28;20020;-45
2021/01/19 21:29:23;;;;;;;;;;;6.90;99.90;;;;;;12398050;28;20357;-45
2021/01/19 21:35:26;;;;;;;;;;;6.80;99.90;;;;;;12375736;28;20015;-43
2021/01/19 21:41:27;;;;;;;;;;;6.80;99.90;;;;;;12401692;28;21115;-45
2021/01/19 21:47:28;;;;;;;;;;;6.70;99.90;;;;;;12408360;28;19982;-44
2021/01/19 21:53:30;;;;;;;;;;;6.70;99.90;;;;;;12440747;28;19925;-43
2021/01/19 21:59:31;;;;;;;;;;;6.50;99.90;;;;;;12420844;28;19929;-43
2021/01/19 22:05:32;;;;;;;;;;;6.40;99.90;;;;;;12435575;28;19978;-43
2021/01/19 22:11:34;;;;;;;;;;;6.40;99.90;;;;;;12395144;28;19929;-43
2021/01/19 22:17:35;;;;;;;;;;;6.40;99.90;;;;;;12413598;28;20249;-43
2021/01/19 22:23:36;;;;;;;;;;;6.30;99.90;;;;;;12427578;28;19925;-44
2021/01/19 22:29:38;;;;;;;;;;;6.30;99.90;;;;;;12414435;28;19943;-43
2021/01/19 22:35:39;;;;;;;;;;;6.30;99.90;;;;;;12411725;28;19933;-43
2021/01/19 22:41:40;;;;;;;;;;;6.40;99.90;;;;;;12428150;28;19929;-43
2021/01/19 22:47:42;;;;;;;;;;;6.30;99.90;;;;;;12384825;28;20456;-43
2021/01/19 22:53:47;;;;;;;;;;;6.30;99.90;;;;;;12409383;28;19929;-44
2021/01/19 22:59:48;;;;;;;;;;;6.30;99.90;;;;;;12425230;28;19926;-43
2021/01/19 23:05:50;;;;;;;;;;;6.30;99.90;;;;;;12415115;28;19937;-43
2021/01/19 23:11:51;;;;;;;;;;;6.20;99.90;;;;;;12393367;28;20539;-46
2021/01/19 23:17:53;;;;;;;;;;;6.10;99.90;;;;;;12423771;28;20350;-43
2021/01/19 23:23:54;;;;;;;;;;;6.10;99.90;;;;;;12401549;28;19928;-43
2021/01/19 23:29:55;;;;;;;;;;;6.10;99.90;;;;;;12405617;28;20361;-43
2021/01/19 23:35:57;;;;;;;;;;;6.10;99.90;;;;;;12376722;28;19929;-43
2021/01/19 23:41:58;;;;;;;;;;;6.00;99.90;;;;;;12386476;28;20265;-44
2021/01/19 23:47:59;;;;;;;;;;;6.00;99.90;;;;;;12401372;28;19984;-43
2021/01/19 23:54:01;;;;;;;;;;;5.90;99.90;;;;;;12403640;28;20329;-43
